createdAt,value
2022-09-26T00:00:54.670Z,6.30
2022-09-26T00:01:56.467Z,8.95
2022-09-26T00:02:58.220Z,6.05
2022-09-26T00:04:03.183Z,7.90
2022-09-26T00:05:05.283Z,6.15
2022-09-26T00:06:08.580Z,5.55
2022-09-26T00:07:10.220Z,7.18
2022-09-26T00:08:11.851Z,6.35
2022-09-26T00:09:14.955Z,7.18
2022-09-26T00:10:16.809Z,6.43
2022-09-26T00:11:22.153Z,6.38
2022-09-26T00:12:23.920Z,7.65
2022-09-26T00:13:26.923Z,6.45
2022-09-26T00:14:30.249Z,6.32
2022-09-26T00:15:31.939Z,8.23
2022-09-26T00:16:33.832Z,7.38
2022-09-26T00:17:35.654Z,7.72
2022-09-26T00:18:37.772Z,7.72
2022-09-26T00:19:39.598Z,5.63
2022-09-26T00:20:41.230Z,8.18
2022-09-26T00:21:43.023Z,5.15
2022-09-26T00:22:44.709Z,6.55
2022-09-26T00:23:47.604Z,6.13
2022-09-26T00:24:49.257Z,6.07
2022-09-26T00:25:51.905Z,7.57
2022-09-26T00:26:55.058Z,7.10
2022-09-26T00:27:56.716Z,9.68
2022-09-26T00:28:59.441Z,8.30
2022-09-26T00:30:01.075Z,5.90
2022-09-26T00:31:05.700Z,5.55
2022-09-26T00:32:07.478Z,5.93
2022-09-26T00:33:09.122Z,8.10
2022-09-26T00:34:15.867Z,7.82
2022-09-26T00:35:17.634Z,6.00
2022-09-26T00:36:20.023Z,5.72
2022-09-26T00:37:21.650Z,5.57
2022-09-26T00:38:24.045Z,6.97
2022-09-26T00:39:25.903Z,6.70
2022-09-26T00:40:28.184Z,7.00
2022-09-26T00:41:29.902Z,6.20
2022-09-26T00:42:32.086Z,7.28
2022-09-26T00:43:38.469Z,7.88
2022-09-26T00:44:42.731Z,6.40
2022-09-26T00:45:44.558Z,9.55
2022-09-26T00:46:49.067Z,7.00
2022-09-26T00:47:59.581Z,6.43
2022-09-26T00:49:34.066Z,5.82
2022-09-26T00:50:39.137Z,7.10
2022-09-26T00:51:43.377Z,6.25
2022-09-26T00:52:56.560Z,6.55
2022-09-26T00:53:59.401Z,5.35
2022-09-26T00:55:04.792Z,7.65
2022-09-26T00:56:15.454Z,6.35
2022-09-26T00:57:21.935Z,7.65
2022-09-26T00:58:32.710Z,6.80
2022-09-26T00:59:38.917Z,5.97
2022-09-26T01:00:42.448Z,6.82
2022-09-26T01:01:44.824Z,5.90
2022-09-26T01:02:48.260Z,8.13
2022-09-26T01:03:51.675Z,7.35
2022-09-26T01:04:54.572Z,5.78
2022-09-26T01:05:56.621Z,7.43
2022-09-26T01:07:01.982Z,7.53
2022-09-26T01:08:05.602Z,6.13
2022-09-26T01:09:12.512Z,5.57
2022-09-26T01:10:16.140Z,6.88
2022-09-26T01:11:18.441Z,6.40
2022-09-26T01:12:22.092Z,6.38
2022-09-26T01:13:24.743Z,6.80
2022-09-26T01:14:27.022Z,9.75
2022-09-26T01:15:29.163Z,8.27
2022-09-26T01:16:31.850Z,6.05
2022-09-26T01:17:33.966Z,6.65
2022-09-26T01:18:36.090Z,7.07
2022-09-26T01:20:21.017Z,5.88
2022-09-26T01:22:00.198Z,7.10
2022-09-26T01:23:37.801Z,8.43
2022-09-26T01:24:52.364Z,7.18
2022-09-26T01:26:25.346Z,6.10
2022-09-26T01:27:51.462Z,7.03
2022-09-26T01:29:27.922Z,7.28
2022-09-26T01:30:50.140Z,5.53
2022-09-26T01:32:48.715Z,6.50
2022-09-26T01:33:56.566Z,6.13
2022-09-26T01:35:12.551Z,6.93
2022-09-26T01:36:46.841Z,6.10
2022-09-26T01:38:12.607Z,6.70
2022-09-26T01:39:22.562Z,8.85
2022-09-26T01:40:50.346Z,7.50
2022-09-26T01:42:03.987Z,6.38
2022-09-26T01:43:08.625Z,9.43
2022-09-26T01:44:16.230Z,7.40
2022-09-26T01:45:37.910Z,6.57
2022-09-26T01:46:51.560Z,5.65
2022-09-26T01:48:08.649Z,7.60
2022-09-26T01:49:13.526Z,8.45
2022-09-26T01:50:53.185Z,7.45
2022-09-26T01:52:10.466Z,6.80
2022-09-26T01:53:15.263Z,6.45
2022-09-26T01:54:23.251Z,8.38
2022-09-26T01:55:30.277Z,6.30
2022-09-26T01:56:36.959Z,7.28
2022-09-26T01:57:44.459Z,7.60
2022-09-26T01:58:53.395Z,7.20
2022-09-26T02:00:02.128Z,7.75
2022-09-26T02:01:09.893Z,8.02
2022-09-26T02:02:21.474Z,6.53
2022-09-26T02:03:28.798Z,7.03
2022-09-26T02:04:39.162Z,6.63
2022-09-26T02:05:56.609Z,7.47
2022-09-26T02:07:11.264Z,6.40
2022-09-26T02:08:24.558Z,8.10
2022-09-26T02:09:39.394Z,7.60
2022-09-26T02:10:56.163Z,6.55
2022-09-26T02:12:03.527Z,7.72
2022-09-26T02:13:14.913Z,7.63
2022-09-26T02:14:22.751Z,7.57
2022-09-26T02:15:27.689Z,8.20
2022-09-26T02:16:38.830Z,7.93
2022-09-26T02:17:44.205Z,6.88
2022-09-26T02:19:02.645Z,5.75
2022-09-26T02:20:15.393Z,9.95
2022-09-26T02:21:20.774Z,6.10
2022-09-26T02:22:24.355Z,6.75
2022-09-26T02:23:25.969Z,6.15
2022-09-26T02:24:29.156Z,7.80
2022-09-26T02:25:31.950Z,6.63
2022-09-26T02:26:33.886Z,7.10
2022-09-26T02:27:35.770Z,10.40
2022-09-26T02:28:37.544Z,8.98
2022-09-26T02:29:40.596Z,7.80
2022-09-26T02:30:46.452Z,6.75
2022-09-26T02:31:55.901Z,7.80
2022-09-26T02:32:57.935Z,8.05
2022-09-26T02:34:00.157Z,9.00
2022-09-26T02:35:22.698Z,9.32
2022-09-26T02:36:24.537Z,9.07
2022-09-26T02:37:28.962Z,6.00
2022-09-26T02:38:31.466Z,5.60
2022-09-26T02:39:33.792Z,8.20
2022-09-26T02:40:47.267Z,7.30
2022-09-26T02:41:57.580Z,7.47
2022-09-26T02:43:31.551Z,7.13
2022-09-26T02:45:10.349Z,7.00
2022-09-26T02:46:40.778Z,6.10
2022-09-26T02:48:14.367Z,5.55
2022-09-26T02:49:32.016Z,6.95
2022-09-26T02:50:58.607Z,6.63
2022-09-26T02:52:22.545Z,6.47
2022-09-26T02:53:36.406Z,7.50
2022-09-26T02:55:06.287Z,7.75
2022-09-26T02:56:14.305Z,6.10
2022-09-26T02:57:31.031Z,6.13
2022-09-26T02:58:59.690Z,7.80
2022-09-26T03:00:16.213Z,8.10
2022-09-26T03:01:32.965Z,9.15
2022-09-26T03:02:40.825Z,7.15
2022-09-26T03:03:59.882Z,6.10
2022-09-26T03:05:06.663Z,7.35
2022-09-26T03:06:13.804Z,7.13
2022-09-26T03:07:24.410Z,6.53
2022-09-26T03:08:29.490Z,8.60
2022-09-26T03:09:31.391Z,6.68
2022-09-26T03:10:34.533Z,6.88
2022-09-26T03:11:37.073Z,6.03
2022-09-26T03:12:39.785Z,9.57
2022-09-26T03:13:43.152Z,8.18
2022-09-26T03:14:47.225Z,6.25
2022-09-26T03:15:52.938Z,6.57
2022-09-26T03:16:54.777Z,8.02
2022-09-26T03:18:00.375Z,8.07
2022-09-26T03:19:16.741Z,7.57
2022-09-26T03:20:21.612Z,7.90
2022-09-26T03:21:24.049Z,6.82
2022-09-26T03:22:25.866Z,6.75
2022-09-26T03:23:28.851Z,7.93
2022-09-26T03:24:30.660Z,9.55
2022-09-26T03:25:32.340Z,9.18
2022-09-26T03:26:34.887Z,6.18
2022-09-26T03:27:39.363Z,9.73
2022-09-26T03:28:41.434Z,7.55
2022-09-26T03:29:43.679Z,7.90
2022-09-26T03:30:45.303Z,9.23
2022-09-26T03:31:50.249Z,6.72
2022-09-26T03:32:52.211Z,8.85
2022-09-26T03:33:54.305Z,8.88
2022-09-26T03:34:56.181Z,8.48
2022-09-26T03:36:00.128Z,9.05
2022-09-26T03:37:01.824Z,9.70
2022-09-26T03:38:03.474Z,10.38
2022-09-26T03:39:05.138Z,8.65
2022-09-26T03:40:10.255Z,11.40
2022-09-26T03:41:12.005Z,7.68
2022-09-26T03:42:14.576Z,7.53
2022-09-26T03:43:16.214Z,8.65
2022-09-26T03:44:17.871Z,9.25
2022-09-26T03:45:20.862Z,11.30
2022-09-26T03:46:24.161Z,8.25
2022-09-26T03:47:26.899Z,7.82
2022-09-26T03:48:28.529Z,8.60
2022-09-26T03:49:30.399Z,8.32
2022-09-26T03:50:33.872Z,7.38
2022-09-26T03:51:35.693Z,7.80
2022-09-26T03:52:37.311Z,9.15
2022-09-26T03:53:41.927Z,9.45
2022-09-26T03:54:44.081Z,8.27
2022-09-26T03:55:46.248Z,6.95
2022-09-26T03:56:48.025Z,8.13
2022-09-26T03:57:49.665Z,8.25
2022-09-26T03:58:51.321Z,7.30
2022-09-26T03:59:53.301Z,9.30
2022-09-26T04:00:54.996Z,8.70
2022-09-26T04:01:56.722Z,9.00
2022-09-26T04:03:02.911Z,8.20
2022-09-26T04:04:05.105Z,9.95
2022-09-26T04:05:07.129Z,10.55
2022-09-26T04:06:10.342Z,8.55
2022-09-26T04:07:12.364Z,7.85
2022-09-26T04:08:14.039Z,8.20
2022-09-26T04:09:17.720Z,9.77
2022-09-26T04:10:19.996Z,9.88
2022-09-26T04:11:24.658Z,8.10
2022-09-26T04:12:27.057Z,9.07
2022-09-26T04:13:49.961Z,8.77
2022-09-26T04:14:50.858Z,8.32
2022-09-26T04:15:56.340Z,9.70
2022-09-26T04:16:58.427Z,11.93
2022-09-26T04:18:00.142Z,12.48
2022-09-26T04:19:01.820Z,9.35
2022-09-26T04:20:03.977Z,8.95
2022-09-26T04:21:10.249Z,7.68
2022-09-26T04:22:11.956Z,8.90
2022-09-26T04:23:13.673Z,11.23
2022-09-26T04:24:16.008Z,8.73
2022-09-26T04:25:17.655Z,9.18
2022-09-26T04:26:23.733Z,9.88
2022-09-26T04:27:28.870Z,9.55
2022-09-26T04:28:31.022Z,8.70
2022-09-26T04:29:32.731Z,10.65
2022-09-26T04:30:34.456Z,10.25
2022-09-26T04:31:36.808Z,9.15
2022-09-26T04:32:38.530Z,9.07
2022-09-26T04:33:40.329Z,10.02
2022-09-26T04:34:41.965Z,8.68
2022-09-26T04:35:43.615Z,7.82
2022-09-26T04:36:45.372Z,8.75
2022-09-26T04:37:50.449Z,10.00
2022-09-26T04:38:52.537Z,10.32
2022-09-26T04:39:54.253Z,10.27
2022-09-26T04:40:56.018Z,8.98
2022-09-26T04:41:58.456Z,9.60
2022-09-26T04:43:00.191Z,7.60
2022-09-26T04:44:02.047Z,9.95
2022-09-26T04:45:05.515Z,8.55
2022-09-26T04:46:15.932Z,8.63
2022-09-26T04:47:21.980Z,9.02
2022-09-26T04:48:24.376Z,9.43
2022-09-26T04:49:26.105Z,9.70
2022-09-26T04:50:29.160Z,8.25
2022-09-26T04:51:31.922Z,8.70
2022-09-26T04:52:33.914Z,10.52
2022-09-26T04:53:35.970Z,10.80
2022-09-26T04:54:38.591Z,9.45
2022-09-26T04:55:45.077Z,10.13
2022-09-26T04:56:47.245Z,8.98
2022-09-26T04:57:52.441Z,9.70
2022-09-26T04:58:56.583Z,8.88
2022-09-26T04:59:58.485Z,9.80
2022-09-26T05:01:14.537Z,9.38
2022-09-26T05:02:16.302Z,9.02
2022-09-26T05:03:18.807Z,11.27
2022-09-26T05:04:27.252Z,10.55
2022-09-26T05:05:31.546Z,7.50
2022-09-26T05:06:33.314Z,9.43
2022-09-26T05:07:40.162Z,11.00
2022-09-26T05:08:44.841Z,8.80
2022-09-26T05:09:46.528Z,9.77
2022-09-26T05:10:54.528Z,11.02
2022-09-26T05:11:56.333Z,11.00
2022-09-26T05:13:00.974Z,10.15
2022-09-26T05:14:04.544Z,11.30
2022-09-26T05:15:11.298Z,9.35
2022-09-26T05:16:14.423Z,9.40
2022-09-26T05:17:16.413Z,8.93
2022-09-26T05:18:19.085Z,12.38
2022-09-26T05:19:21.301Z,10.02
2022-09-26T05:20:24.555Z,8.45
2022-09-26T05:21:26.212Z,8.75
2022-09-26T05:22:32.047Z,9.32
2022-09-26T05:23:54.324Z,10.05
2022-09-26T05:25:14.858Z,9.90
2022-09-26T05:26:31.416Z,10.73
2022-09-26T05:27:33.073Z,9.95
2022-09-26T05:28:34.725Z,10.73
2022-09-26T05:29:36.375Z,11.20
2022-09-26T05:30:38.317Z,9.02
2022-09-26T05:31:40.358Z,9.32
2022-09-26T05:32:48.527Z,10.45
2022-09-26T05:33:51.501Z,9.73
2022-09-26T05:34:54.250Z,10.73
2022-09-26T05:35:55.942Z,11.65
2022-09-26T05:36:57.713Z,9.10
2022-09-26T05:38:03.761Z,11.75
2022-09-26T05:39:26.557Z,10.73
2022-09-26T05:40:47.346Z,8.65
2022-09-26T05:41:49.186Z,10.20
2022-09-26T05:42:50.833Z,12.30
2022-09-26T05:43:53.808Z,10.48
2022-09-26T05:44:55.453Z,10.48
2022-09-26T05:46:09.474Z,11.13
2022-09-26T05:47:11.314Z,9.60
2022-09-26T05:48:17.960Z,10.95
2022-09-26T05:49:19.661Z,11.95
2022-09-26T05:50:22.641Z,8.80
2022-09-26T05:51:24.338Z,10.70
2022-09-26T05:52:28.751Z,11.73
2022-09-26T05:53:31.674Z,10.38
2022-09-26T05:54:33.370Z,9.13
2022-09-26T05:55:35.040Z,11.32
2022-09-26T05:56:37.426Z,10.73
2022-09-26T05:57:39.101Z,8.88
2022-09-26T05:58:41.705Z,10.40
2022-09-26T05:59:43.652Z,10.57
2022-09-26T06:00:50.552Z,10.82
2022-09-26T06:01:52.469Z,9.10
2022-09-26T06:02:56.507Z,10.85
2022-09-26T06:03:58.203Z,8.95
2022-09-26T06:05:01.810Z,10.55
2022-09-26T06:06:15.835Z,11.45
2022-09-26T06:07:17.469Z,11.95
2022-09-26T06:08:19.343Z,8.45
2022-09-26T06:09:21.308Z,11.38
2022-09-26T06:10:23.675Z,10.93
2022-09-26T06:11:30.695Z,11.35
2022-09-26T06:12:32.491Z,8.48
2022-09-26T06:13:35.382Z,12.68
2022-09-26T06:14:37.039Z,8.82
2022-09-26T06:15:39.960Z,10.60
2022-09-26T06:16:41.826Z,9.50
2022-09-26T06:17:43.790Z,10.15
2022-09-26T06:18:46.938Z,9.95
2022-09-26T06:19:48.600Z,11.32
2022-09-26T06:20:50.271Z,10.10
2022-09-26T06:21:51.957Z,12.50
2022-09-26T06:22:55.134Z,11.13
2022-09-26T06:23:56.982Z,11.85
2022-09-26T06:24:59.372Z,11.35
2022-09-26T06:26:03.482Z,8.77
2022-09-26T06:27:05.162Z,8.68
2022-09-26T06:28:06.797Z,8.43
2022-09-26T06:29:10.444Z,9.65
2022-09-26T06:30:12.202Z,11.95
2022-09-26T06:31:17.030Z,10.32
2022-09-26T06:32:18.818Z,10.57
2022-09-26T06:33:21.045Z,8.23
2022-09-26T06:34:22.882Z,9.68
2022-09-26T06:35:24.505Z,9.90
2022-09-26T06:36:26.154Z,8.48
2022-09-26T06:37:28.663Z,8.00
2022-09-26T06:38:30.407Z,9.80
2022-09-26T06:39:35.746Z,9.63
2022-09-26T06:40:37.869Z,10.32
2022-09-26T06:41:39.568Z,9.07
2022-09-26T06:42:41.518Z,12.02
2022-09-26T06:43:46.443Z,10.60
2022-09-26T06:44:48.361Z,8.38
2022-09-26T06:45:50.147Z,10.25
2022-09-26T06:46:51.926Z,8.57
2022-09-26T06:47:54.673Z,7.97
2022-09-26T06:48:56.462Z,8.55
2022-09-26T06:49:58.170Z,8.82
2022-09-26T06:51:00.250Z,10.20
2022-09-26T06:52:03.031Z,9.65
2022-09-26T06:53:11.803Z,7.88
2022-09-26T06:54:13.464Z,5.97
2022-09-26T06:55:15.225Z,7.05
2022-09-26T06:56:16.986Z,7.35
2022-09-26T06:57:18.647Z,7.35
2022-09-26T06:58:20.281Z,5.82
2022-09-26T06:59:23.195Z,8.93
2022-09-26T07:00:25.799Z,9.98
2022-09-26T07:01:27.693Z,7.95
2022-09-26T07:02:29.411Z,7.60
2022-09-26T07:03:31.635Z,7.80
2022-09-26T07:04:33.541Z,8.88
2022-09-26T07:05:35.332Z,7.70
2022-09-26T07:06:38.052Z,7.28
2022-09-26T07:07:45.775Z,7.05
2022-09-26T07:09:05.506Z,6.60
2022-09-26T07:10:11.131Z,7.55
2022-09-26T07:11:35.120Z,6.95
2022-09-26T07:12:37.664Z,7.38
2022-09-26T07:13:39.934Z,8.48
2022-09-26T07:14:42.609Z,8.20
2022-09-26T07:15:45.573Z,7.55
2022-09-26T07:16:51.947Z,7.13
2022-09-26T07:17:53.617Z,7.70
2022-09-26T07:18:57.214Z,9.77
2022-09-26T07:19:59.985Z,7.35
2022-09-26T07:21:05.499Z,8.10
2022-09-26T07:22:08.050Z,7.32
2022-09-26T07:23:11.057Z,5.63
2022-09-26T07:24:15.288Z,6.30
2022-09-26T07:25:17.006Z,7.03
2022-09-26T07:26:18.706Z,6.22
2022-09-26T07:27:20.339Z,6.88
2022-09-26T07:28:22.057Z,6.95
2022-09-26T07:29:23.708Z,7.55
2022-09-26T07:30:26.034Z,7.35
2022-09-26T07:31:27.928Z,7.38
2022-09-26T07:32:31.238Z,7.03
2022-09-26T07:33:32.892Z,6.75
2022-09-26T07:34:34.557Z,7.47
2022-09-26T07:35:37.492Z,7.30
2022-09-26T07:36:40.652Z,6.55
2022-09-26T07:37:43.248Z,6.10
2022-09-26T07:38:48.686Z,5.85
2022-09-26T07:39:53.680Z,5.95
2022-09-26T07:41:00.866Z,6.35
2022-09-26T07:42:03.501Z,4.20
2022-09-26T07:43:24.172Z,6.00
2022-09-26T07:46:09.563Z,7.53
2022-09-26T07:47:29.636Z,6.43
2022-09-26T07:48:50.350Z,6.15
2022-09-26T07:50:10.927Z,6.68
2022-09-26T07:51:12.659Z,5.47
2022-09-26T07:52:15.074Z,7.28
2022-09-26T07:53:18.199Z,5.80
2022-09-26T07:54:20.111Z,5.20
2022-09-26T07:55:26.375Z,5.55
2022-09-26T07:56:28.001Z,4.35
2022-09-26T07:57:33.052Z,6.10
2022-09-26T07:58:46.306Z,7.45
2022-09-26T07:59:50.442Z,5.60
2022-09-26T08:00:52.151Z,5.63
2022-09-26T08:01:55.130Z,4.65
2022-09-26T08:03:00.931Z,5.45
2022-09-26T08:04:02.656Z,5.50
2022-09-26T08:05:05.273Z,5.70
2022-09-26T08:06:07.600Z,7.00
2022-09-26T08:07:10.058Z,4.45
2022-09-26T08:08:11.726Z,5.47
2022-09-26T08:09:13.402Z,5.43
2022-09-26T08:10:22.029Z,5.22
2022-09-26T08:11:24.958Z,6.10
2022-09-26T08:12:27.067Z,6.28
2022-09-26T08:13:32.061Z,6.18
2022-09-26T08:14:33.860Z,5.63
2022-09-26T08:15:35.513Z,5.22
2022-09-26T08:16:41.513Z,5.95
2022-09-26T08:17:43.605Z,5.70
2022-09-26T08:18:45.256Z,7.85
2022-09-26T08:19:46.929Z,6.30
2022-09-26T08:20:48.628Z,5.43
2022-09-26T08:21:50.302Z,5.53
2022-09-26T08:22:55.498Z,5.50
2022-09-26T08:23:57.493Z,4.20
2022-09-26T08:25:00.275Z,5.72
2022-09-26T08:26:08.400Z,5.55
2022-09-26T08:27:10.194Z,6.85
2022-09-26T08:28:12.915Z,6.50
2022-09-26T08:29:14.784Z,6.70
2022-09-26T08:30:16.700Z,5.50
2022-09-26T08:31:18.984Z,5.30
2022-09-26T08:32:21.063Z,5.97
2022-09-26T08:33:23.627Z,8.35
2022-09-26T08:34:25.963Z,5.95
2022-09-26T08:35:29.457Z,5.65
2022-09-26T08:36:32.861Z,6.22
2022-09-26T08:37:34.535Z,6.32
2022-09-26T08:38:37.773Z,5.40
2022-09-26T08:39:39.441Z,5.82
2022-09-26T08:41:01.790Z,6.00
2022-09-26T08:42:28.856Z,5.65
2022-09-26T08:43:57.802Z,6.10
2022-09-26T08:45:32.522Z,5.60
2022-09-26T08:47:00.038Z,5.38
2022-09-26T08:48:36.865Z,7.15
2022-09-26T08:50:03.410Z,4.25
2022-09-26T08:51:29.970Z,4.80
2022-09-26T08:52:37.491Z,5.35
2022-09-26T08:53:52.101Z,5.50
2022-09-26T08:54:56.447Z,6.28
2022-09-26T08:56:01.146Z,6.32
2022-09-26T08:57:15.247Z,8.05
2022-09-26T08:58:44.480Z,5.70
2022-09-26T08:59:49.007Z,5.85
2022-09-26T09:00:57.462Z,5.57
2022-09-26T09:02:05.127Z,5.35
2022-09-26T09:03:23.101Z,5.70
2022-09-26T09:05:08.805Z,5.72
2022-09-26T09:06:13.371Z,5.93
2022-09-26T09:07:23.561Z,5.90
2022-09-26T09:08:36.972Z,5.70
2022-09-26T09:09:38.830Z,7.95
2022-09-26T09:10:54.787Z,6.00
2022-09-26T09:12:08.573Z,4.72
2022-09-26T09:13:25.192Z,5.88
2022-09-26T09:15:02.430Z,5.13
2022-09-26T09:16:31.133Z,6.82
2022-09-26T09:18:18.834Z,5.30
2022-09-26T09:19:48.690Z,5.60
2022-09-26T09:20:56.099Z,5.10
2022-09-26T09:22:38.890Z,4.60
2022-09-26T09:24:10.642Z,6.22
2022-09-26T09:25:22.090Z,5.80
2022-09-26T09:28:28.822Z,5.90
2022-09-26T09:29:49.377Z,6.22
2022-09-26T09:31:01.337Z,4.53
2022-09-26T09:32:04.801Z,6.05
2022-09-26T09:33:20.674Z,4.68
2022-09-26T09:34:28.707Z,6.13
2022-09-26T09:35:48.951Z,5.65
2022-09-26T09:36:54.195Z,5.03
2022-09-26T09:37:56.591Z,7.30
2022-09-26T09:39:04.967Z,5.15
2022-09-26T09:40:14.586Z,5.38
2022-09-26T09:41:21.246Z,6.43
2022-09-26T09:42:40.694Z,5.05
2022-09-26T09:44:04.352Z,5.05
2022-09-26T09:45:30.581Z,5.18
2022-09-26T09:46:40.306Z,5.30
2022-09-26T09:47:42.251Z,5.47
2022-09-26T09:48:48.292Z,5.00
2022-09-26T09:49:50.840Z,4.95
2022-09-26T09:50:58.033Z,5.82
2022-09-26T09:52:23.335Z,5.50
2022-09-26T09:53:52.241Z,5.65
2022-09-26T09:55:07.123Z,6.55
2022-09-26T09:56:37.426Z,7.00
2022-09-26T09:58:00.157Z,6.70
2022-09-26T09:59:37.389Z,5.38
2022-09-26T10:00:51.392Z,6.00
2022-09-26T10:02:24.328Z,5.10
2022-09-26T10:03:36.390Z,5.40
2022-09-26T10:04:46.499Z,5.47
2022-09-26T10:05:50.321Z,5.57
2022-09-26T10:06:52.598Z,4.28
2022-09-26T10:07:59.421Z,4.47
2022-09-26T10:09:35.571Z,4.43
2022-09-26T10:10:41.477Z,5.53
2022-09-26T10:11:43.209Z,5.47
2022-09-26T10:12:45.178Z,4.55
2022-09-26T10:13:50.894Z,6.45
2022-09-26T10:15:02.210Z,4.25
2022-09-26T10:16:08.930Z,5.00
2022-09-26T10:17:10.576Z,6.10
2022-09-26T10:18:25.329Z,5.60
2022-09-26T10:19:37.074Z,5.47
2022-09-26T10:20:53.125Z,5.15
2022-09-26T10:21:54.810Z,4.95
2022-09-26T10:22:56.473Z,5.85
2022-09-26T10:23:59.506Z,5.10
2022-09-26T10:25:21.253Z,6.85
2022-09-26T10:26:31.153Z,4.68
2022-09-26T10:27:41.057Z,7.85
2022-09-26T10:28:57.436Z,7.13
2022-09-26T10:30:00.884Z,4.20
2022-09-26T10:31:10.378Z,5.72
2022-09-26T10:32:12.262Z,5.63
2022-09-26T10:33:30.146Z,5.53
2022-09-26T10:34:34.769Z,4.97
2022-09-26T10:35:45.349Z,6.32
2022-09-26T10:36:47.309Z,5.80
2022-09-26T10:38:10.406Z,5.22
2022-09-26T10:39:49.446Z,4.35
2022-09-26T10:40:55.725Z,5.13
2022-09-26T10:41:59.367Z,4.28
2022-09-26T10:43:23.270Z,6.18
2022-09-26T10:44:36.692Z,4.88
2022-09-26T10:45:38.490Z,4.90
2022-09-26T10:46:45.326Z,4.45
2022-09-26T10:47:51.329Z,4.40
2022-09-26T10:48:56.223Z,4.95
2022-09-26T10:50:12.055Z,6.57
2022-09-26T10:51:19.893Z,5.18
2022-09-26T10:52:27.101Z,4.95
2022-09-26T10:53:36.464Z,5.20
2022-09-26T10:54:42.448Z,4.50
2022-09-26T10:55:51.339Z,5.22
2022-09-26T10:56:59.406Z,4.15
2022-09-26T10:58:11.397Z,5.80
2022-09-26T10:59:19.059Z,7.10
2022-09-26T11:00:43.133Z,5.25
2022-09-26T11:01:51.208Z,4.10
2022-09-26T11:02:53.096Z,4.70
2022-09-26T11:04:10.448Z,4.97
2022-09-26T11:05:34.907Z,6.75
2022-09-26T11:06:43.871Z,5.50
2022-09-26T11:07:49.025Z,4.95
2022-09-26T11:08:56.224Z,4.88
2022-09-26T11:10:01.960Z,5.13
2022-09-26T11:11:13.815Z,4.95
2022-09-26T11:12:30.438Z,4.28
2022-09-26T11:14:03.607Z,4.05
2022-09-26T11:15:10.456Z,4.40
2022-09-26T11:16:15.032Z,4.57
2022-09-26T11:17:17.668Z,5.03
2022-09-26T11:18:35.712Z,5.45
2022-09-26T11:19:56.313Z,4.75
2022-09-26T11:21:23.148Z,5.30
2022-09-26T11:22:38.316Z,5.43
2022-09-26T11:24:19.510Z,4.68
2022-09-26T11:25:28.685Z,5.60
2022-09-26T11:26:49.389Z,5.50
2022-09-26T11:27:56.477Z,4.75
2022-09-26T11:29:18.037Z,7.28
2022-09-26T11:30:21.682Z,3.80
2022-09-26T11:31:27.196Z,6.38
2022-09-26T11:32:33.353Z,4.50
2022-09-26T11:33:35.003Z,4.78
2022-09-26T11:34:36.641Z,4.32
2022-09-26T11:35:58.185Z,5.13
2022-09-26T11:37:17.646Z,3.80
2022-09-26T11:38:41.949Z,5.00
2022-09-26T11:39:50.595Z,4.97
2022-09-26T11:41:03.383Z,4.90
2022-09-26T11:42:20.371Z,5.30
2022-09-26T11:43:53.280Z,4.45
2022-09-26T11:44:59.709Z,4.07
2022-09-26T11:46:07.616Z,5.53
2022-09-26T11:47:30.780Z,4.70
2022-09-26T11:48:42.857Z,5.15
2022-09-26T11:49:50.629Z,5.30
2022-09-26T11:50:55.328Z,4.80
2022-09-26T11:52:04.408Z,4.60
2022-09-26T11:53:24.389Z,5.22
2022-09-26T11:55:06.280Z,4.20
2022-09-26T11:56:15.804Z,4.45
2022-09-26T11:57:45.218Z,4.25
2022-09-26T11:59:12.259Z,5.13
2022-09-26T12:00:26.625Z,5.50
2022-09-26T12:02:00.006Z,4.32
2022-09-26T12:03:23.152Z,4.50
2022-09-26T12:04:55.085Z,4.65
2022-09-26T12:06:20.409Z,4.60
2022-09-26T12:07:44.269Z,4.80
2022-09-26T12:09:11.814Z,6.53
2022-09-26T12:10:25.203Z,5.18
2022-09-26T12:11:40.026Z,5.05
2022-09-26T12:13:29.865Z,5.93
2022-09-26T12:15:09.065Z,5.32
2022-09-26T12:16:23.874Z,7.30
2022-09-26T12:18:06.397Z,4.25
2022-09-26T12:19:16.982Z,6.10
2022-09-26T12:20:30.477Z,6.90
2022-09-26T12:22:08.457Z,6.60
2022-09-26T12:23:37.825Z,7.22
2022-09-26T12:24:53.071Z,6.18
2022-09-26T12:25:57.640Z,5.70
2022-09-26T12:27:35.962Z,5.85
2022-09-26T12:28:43.982Z,6.75
2022-09-26T12:30:02.266Z,5.90
2022-09-26T12:31:22.961Z,6.55
2022-09-26T12:32:53.484Z,4.63
2022-09-26T12:34:19.620Z,4.85
2022-09-26T12:35:32.428Z,5.38
2022-09-26T12:36:54.075Z,4.82
2022-09-26T12:38:10.191Z,4.25
2022-09-26T12:39:17.228Z,6.38
2022-09-26T12:40:37.565Z,5.43
2022-09-26T12:41:58.172Z,5.45
2022-09-26T12:43:32.617Z,4.60
2022-09-26T12:44:59.611Z,4.32
2022-09-26T12:46:27.389Z,4.55
2022-09-26T12:47:32.814Z,6.60
2022-09-26T12:49:09.872Z,5.07
2022-09-26T12:50:24.189Z,5.95
2022-09-26T12:51:42.137Z,5.00
2022-09-26T12:53:05.348Z,5.53
2022-09-26T12:54:17.842Z,3.80
2022-09-26T12:55:31.571Z,4.35
2022-09-26T12:56:45.281Z,5.60
2022-09-26T12:58:09.387Z,5.28
2022-09-26T12:59:50.999Z,5.70
2022-09-26T13:01:25.358Z,5.03
2022-09-26T13:03:04.927Z,5.78
2022-09-26T13:04:28.478Z,4.32
2022-09-26T13:05:36.957Z,5.05
2022-09-26T13:06:49.035Z,5.03
2022-09-26T13:08:21.849Z,4.00
2022-09-26T13:09:40.876Z,6.70
2022-09-26T13:10:48.509Z,4.50
2022-09-26T13:12:16.779Z,4.65
2022-09-26T13:13:49.550Z,4.88
2022-09-26T13:15:19.134Z,4.00
2022-09-26T13:16:32.136Z,3.83
2022-09-26T13:17:40.162Z,3.90
2022-09-26T13:18:47.170Z,4.18
2022-09-26T13:19:59.439Z,3.95
2022-09-26T13:21:07.409Z,5.15
2022-09-26T13:22:37.829Z,4.47
2022-09-26T13:23:59.638Z,4.15
2022-09-26T13:25:19.983Z,6.35
2022-09-26T13:26:32.581Z,6.55
2022-09-26T13:27:40.643Z,4.53
2022-09-26T13:29:17.331Z,4.10
2022-09-26T13:30:24.371Z,3.80
2022-09-26T13:31:33.291Z,3.85
2022-09-26T13:33:00.214Z,3.83
2022-09-26T13:34:22.230Z,3.78
2022-09-26T13:35:26.141Z,3.45
2022-09-26T13:36:31.476Z,5.10
2022-09-26T13:37:45.867Z,4.63
2022-09-26T13:39:00.677Z,4.40
2022-09-26T13:40:21.185Z,3.70
2022-09-26T13:41:32.650Z,3.10
2022-09-26T13:42:45.183Z,3.28
2022-09-26T13:43:55.197Z,3.72
2022-09-26T13:45:26.807Z,5.07
2022-09-26T13:46:42.612Z,3.55
2022-09-26T13:48:01.133Z,6.22
2022-09-26T13:49:32.158Z,3.65
2022-09-26T13:50:43.428Z,4.75
2022-09-26T13:51:58.253Z,4.70
2022-09-26T13:53:24.786Z,4.53
2022-09-26T13:54:45.201Z,4.07
2022-09-26T13:56:27.672Z,3.53
2022-09-26T13:57:35.536Z,2.90
2022-09-26T13:58:40.481Z,2.75
2022-09-26T13:59:54.386Z,4.40
2022-09-26T14:01:28.677Z,3.65
2022-09-26T14:02:31.873Z,3.80
2022-09-26T14:03:38.968Z,2.88
2022-09-26T14:04:40.687Z,3.35
2022-09-26T14:05:47.936Z,4.03
2022-09-26T14:07:30.123Z,3.70
2022-09-26T14:08:52.740Z,4.85
2022-09-26T14:10:20.815Z,3.88
2022-09-26T14:11:27.976Z,2.90
2022-09-26T14:12:53.494Z,3.00
2022-09-26T14:14:21.418Z,5.03
2022-09-26T14:15:34.723Z,3.45
2022-09-26T14:16:37.156Z,3.50
2022-09-26T14:17:45.064Z,2.70
2022-09-26T14:19:04.085Z,3.40
2022-09-26T14:20:15.695Z,3.88
2022-09-26T14:21:33.463Z,3.42
2022-09-26T14:22:37.536Z,3.05
2022-09-26T14:23:48.255Z,3.50
2022-09-26T14:24:51.441Z,3.90
2022-09-26T14:25:56.739Z,4.13
2022-09-26T14:27:10.548Z,3.70
2022-09-26T14:28:34.577Z,5.45
2022-09-26T14:29:49.285Z,3.70
2022-09-26T14:31:18.301Z,3.63
2022-09-26T14:32:27.746Z,3.58
2022-09-26T14:33:29.428Z,4.00
2022-09-26T14:34:54.612Z,3.80
2022-09-26T14:36:32.148Z,3.60
2022-09-26T14:37:40.868Z,3.50
2022-09-26T14:38:47.523Z,4.20
2022-09-26T14:40:03.506Z,4.05
2022-09-26T14:41:05.781Z,3.25
2022-09-26T14:42:10.873Z,4.18
2022-09-26T14:43:17.557Z,4.60
2022-09-26T14:44:21.444Z,3.70
2022-09-26T14:45:35.302Z,3.70
2022-09-26T14:46:37.178Z,4.18
2022-09-26T14:48:05.197Z,3.65
2022-09-26T14:49:09.045Z,3.97
2022-09-26T14:50:34.321Z,4.50
2022-09-26T14:51:39.651Z,3.60
2022-09-26T14:52:41.384Z,4.00
2022-09-26T14:53:58.035Z,3.50
2022-09-26T14:55:01.745Z,3.85
2022-09-26T14:56:10.010Z,3.45
2022-09-26T14:57:25.030Z,4.88
2022-09-26T14:58:32.187Z,4.57
2022-09-26T14:59:33.817Z,4.15
2022-09-26T15:00:46.300Z,4.28
2022-09-26T15:01:48.230Z,3.53
2022-09-26T15:02:58.775Z,4.70
2022-09-26T15:04:39.091Z,3.30
2022-09-26T15:05:42.299Z,4.25
2022-09-26T15:06:51.291Z,3.67
2022-09-26T15:07:55.377Z,3.95
2022-09-26T15:09:01.457Z,4.05
2022-09-26T15:10:09.765Z,5.22
2022-09-26T15:11:26.084Z,4.80
2022-09-26T15:12:52.503Z,4.47
2022-09-26T15:13:55.330Z,4.28
2022-09-26T15:15:07.769Z,3.10
2022-09-26T15:16:21.501Z,3.75
2022-09-26T15:17:36.244Z,4.45
2022-09-26T15:18:39.739Z,3.28
2022-09-26T15:19:48.137Z,3.60
2022-09-26T15:21:04.595Z,3.08
2022-09-26T15:22:13.192Z,4.15
2022-09-26T15:23:31.503Z,3.53
2022-09-26T15:24:36.721Z,3.92
2022-09-26T15:25:38.814Z,3.83
2022-09-26T15:26:42.880Z,4.65
2022-09-26T15:27:46.615Z,4.45
2022-09-26T15:28:50.654Z,4.82
2022-09-26T15:29:55.380Z,3.67
2022-09-26T15:31:37.378Z,3.83